Decoded Metar for KALS (ALAMOSA in CO, USA) (IATA:ALS) | Meteo·Mobile Aviation Weather
aviador You're here:

KALS Decoded Metar

ALAMOSA in CO, USA
Report Time2018-09-19 16:52:00
UTC Time2018-09-19 17:15:48
Flight Rules vfr VFR
Wind140° at 05 kt
W.Decomp.*RWY 20: 1.8 kt HW 4.7 kt LCW
W.Rank140° ranks 14
Current wind is below 140° avg. (6.1)
Visibility9999 m
Phenomena:N/A
Clouds:N/A
Expected CloudBase > 7,600 ft AGL from Temp-Dew spread
CeilingNone
Temp22°C (ISA +22)
Dew Point03°C (29% RH)
AAT18.7°C
QNH1022 hPa
Density Alt9,856 ft
Elevation7,543 ft
Report Wrong Elevation
Raw Report
KALS 191652Z AUTO 14005KT 10SM CLR 22/03 A3017 RMK AO2 SLP125
T02170028=

Extra information for KALS:More info

Metar Taf Metar & Taf Last 4 Metars F.Rules Stats Wind Profile Meteogram Temp Stats Airport Information Weather charts Add Link Nearby VenuesMetar ALERT Operation Metar Decoded Social comments

AIRNAV info for KALS